Time,TemperatureF,DewpointF,PressureIn,WindDirection,WindDirectionDegrees,WindSpeedMPH,WindSpeedGustMPH,Humidity,HourlyPrecipIn,Conditions,Clouds,dailyrainin,SoftwareType,DateUTC
2013-10-01 00:01:00,55.1,54.0,29.99,NE,44,0.0,0.0,96,0.00,,,0.00,VWS V14.01,2013-10-01 04:01:00,
2013-10-01 00:02:00,55.0,53.9,29.99,NE,44,0.0,0.0,96,0.00,,,0.00,VWS V14.01,2013-10-01 04:02:00,
2013-10-01 00:03:00,55.0,53.9,29.99,NE,44,0.0,0.0,96,0.00,,,0.00,VWS V14.01,2013-10-01 04:03:00,
2013-10-01 00:05:00,55.0,53.9,29.99,NE,44,0.0,0.0,96,0.00,,,0.00,VWS V14.01,2013-10-01 04:05:00,
2013-10-01 00:07:00,55.0,53.9,29.99,NE,44,0.0,0.0,96,0.00,,,0.00,VWS V14.01,2013-10-01 04:07:00,
2013-10-01 00:12:00,55.0,53.9,29.99,NE,44,0.0,0.0,96,0.00,,,0.00,VWS V14.01,2013-10-01 04:12:00,
2013-10-01 00:17:00,55.0,53.9,29.98,NE,44,0.0,0.0,96,0.00,,,0.00,VWS V14.01,2013-10-01 04:17:00,
2013-10-01 00:22:00,54.8,53.7,29.98,NE,44,0.0,0.0,96,0.00,,,0.00,VWS V14.01,2013-10-01 04:22:00,
2013-10-01 00:27:00,54.8,53.7,29.98,NE,44,0.0,0.0,96,0.00,,,0.00,VWS V14.01,2013-10-01 04:27:00,
2013-10-01 00:32:00,54.8,53.7,29.99,NE,44,0.0,0.0,96,0.00,,,0.00,VWS V14.01,2013-10-01 04:32:00,
2013-10-01 00:37:00,54.7,53.6,29.99,NE,44,0.0,0.0,96,0.00,,,0.00,VWS V14.01,2013-10-01 04:37:00,
2013-10-01 00:42:00,54.7,53.6,29.99,NE,44,0.0,0.0,96,0.00,,,0.00,VWS V14.01,2013-10-01 04:42:00,
2013-10-01 00:47:00,54.5,53.4,29.99,NE,44,0.0,0.0,96,0.00,,,0.00,VWS V14.01,2013-10-01 04:47:00,
2013-10-01 00:52:00,54.5,53.4,29.99,NE,44,0.0,0.0,96,0.00,,,0.00,VWS V14.01,2013-10-01 04:52:00,
2013-10-01 00:58:00,54.5,53.4,29.99,NE,44,0.0,0.0,96,0.00,,,0.00,VWS V14.01,2013-10-01 04:58:00,
2013-10-01 01:03:00,54.5,53.4,29.98,NE,44,0.0,0.0,96,0.00,,,0.00,VWS V14.01,2013-10-01 05:03:00,
2013-10-01 01:08:00,54.4,53.3,29.98,NE,44,0.0,0.0,96,0.00,,,0.00,VWS V14.01,2013-10-01 05:08:00,
2013-10-01 01:13:00,54.4,53.3,29.98,NE,44,0.0,0.0,96,0.00,,,0.00,VWS V14.01,2013-10-01 05:13:00,
2013-10-01 01:18:00,54.4,53.3,29.98,NE,44,0.0,0.0,96,0.00,,,0.00,VWS V14.01,2013-10-01 05:18:00,
2013-10-01 01:23:00,54.4,53.3,29.98,NE,44,0.0,0.0,96,0.00,,,0.00,VWS V14.01,2013-10-01 05:23:00,
2013-10-01 01:29:00,54.2,53.1,29.98,NE,44,0.0,0.0,96,0.00,,,0.00,VWS V14.01,2013-10-01 05:29:00,
2013-10-01 01:34:00,54.2,53.1,29.98,NE,44,0.0,0.0,96,0.00,,,0.00,VWS V14.01,2013-10-01 05:34:00,
2013-10-01 01:39:00,54.2,53.1,29.98,NE,44,0.0,0.0,96,0.00,,,0.00,VWS V14.01,2013-10-01 05:39:00,
2013-10-01 01:44:00,54.1,53.0,29.98,NE,44,0.0,0.0,96,0.00,,,0.00,VWS V14.01,2013-10-01 05:44:00,
2013-10-01 01:49:00,53.9,52.8,29.98,NE,44,0.0,0.0,96,0.00,,,0.00,VWS V14.01,2013-10-01 05:49:00,
2013-10-01 01:54:00,53.9,52.8,29.98,NE,44,0.0,0.0,96,0.00,,,0.00,VWS V14.01,2013-10-01 05:54:00,
2013-10-01 01:59:00,54.1,53.3,29.99,NE,44,0.0,0.0,97,0.00,,,0.00,VWS V14.01,2013-10-01 05:59:00,
2013-10-01 02:04:00,53.9,53.1,29.99,NE,44,0.0,0.0,97,0.00,,,0.00,VWS V14.01,2013-10-01 06:04:00,
2013-10-01 02:09:00,53.9,53.1,29.99,NE,44,0.0,0.0,97,0.00,,,0.00,VWS V14.01,2013-10-01 06:09:00,
2013-10-01 02:14:00,53.8,53.0,29.99,NE,44,0.0,0.0,97,0.00,,,0.00,VWS V14.01,2013-10-01 06:14:00,
2013-10-01 02:20:00,53.8,53.0,29.99,NE,44,0.0,0.0,97,0.00,,,0.00,VWS V14.01,2013-10-01 06:20:00,
2013-10-01 02:25:00,53.8,53.0,29.99,NE,44,0.0,0.0,97,0.00,,,0.00,VWS V14.01,2013-10-01 06:25:00,
2013-10-01 02:30:00,53.8,53.0,29.99,NE,44,0.0,0.0,97,0.00,,,0.00,VWS V14.01,2013-10-01 06:30:00,
2013-10-01 02:35:00,53.8,53.0,29.99,NE,44,0.0,0.0,97,0.00,,,0.00,VWS V14.01,2013-10-01 06:35:00,
2013-10-01 02:40:00,53.8,53.0,29.99,NE,44,0.0,0.0,97,0.00,,,0.00,VWS V14.01,2013-10-01 06:40:00,
2013-10-01 02:45:00,53.8,53.0,29.99,NE,44,0.0,0.0,97,0.00,,,0.00,VWS V14.01,2013-10-01 06:45:00,
2013-10-01 02:50:00,53.8,53.0,29.99,NE,44,0.0,0.0,97,0.00,,,0.00,VWS V14.01,2013-10-01 06:50:00,
2013-10-01 02:56:00,53.8,53.0,29.99,NE,44,0.0,0.0,97,0.00,,,0.00,VWS V14.01,2013-10-01 06:56:00,
2013-10-01 03:01:00,53.8,53.0,29.99,NE,44,0.0,0.0,97,0.00,,,0.00,VWS V14.01,2013-10-01 07:01:00,
2013-10-01 03:06:00,53.8,53.0,29.99,NE,44,0.0,0.0,97,0.00,,,0.00,VWS V14.01,2013-10-01 07:06:00,
2013-10-01 03:11:00,53.8,53.0,29.99,NE,44,0.0,0.0,97,0.00,,,0.00,VWS V14.01,2013-10-01 07:11:00,
2013-10-01 03:17:00,53.6,52.8,29.99,NE,44,0.0,0.0,97,0.00,,,0.00,VWS V14.01,2013-10-01 07:17:00,
2013-10-01 03:22:00,53.6,52.8,29.99,NE,44,0.0,0.0,97,0.00,,,0.00,VWS V14.01,2013-10-01 07:22:00,
2013-10-01 03:27:00,53.5,52.7,29.99,NE,44,0.0,0.0,97,0.00,,,0.00,VWS V14.01,2013-10-01 07:27:00,
2013-10-01 03:32:00,53.5,52.7,29.99,NE,44,0.0,0.0,97,0.00,,,0.00,VWS V14.01,2013-10-01 07:32:00,
2013-10-01 03:38:00,53.3,52.5,29.99,NE,44,0.0,0.0,97,0.00,,,0.00,VWS V14.01,2013-10-01 07:38:00,
2013-10-01 03:43:00,53.3,52.5,29.99,NE,44,0.0,0.0,97,0.00,,,0.00,VWS V14.01,2013-10-01 07:43:00,
2013-10-01 03:48:00,53.3,52.5,30.00,NE,44,0.0,0.0,97,0.00,,,0.00,VWS V14.01,2013-10-01 07:48:00,
2013-10-01 03:54:00,53.3,52.5,30.00,NE,44,0.0,0.0,97,0.00,,,0.00,VWS V14.01,2013-10-01 07:54:00,
2013-10-01 03:59:00,53.5,52.7,29.99,NE,44,0.0,0.0,97,0.00,,,0.00,VWS V14.01,2013-10-01 07:59:00,
2013-10-01 04:04:00,53.6,52.8,29.99,NE,44,0.0,0.0,97,0.00,,,0.00,VWS V14.01,2013-10-01 08:04:00,
2013-10-01 04:10:00,53.6,52.8,29.99,NE,44,0.0,0.0,97,0.00,,,0.00,VWS V14.01,2013-10-01 08:10:00,
2013-10-01 04:15:00,53.8,53.0,29.99,NE,44,0.0,0.0,97,0.00,,,0.00,VWS V14.01,2013-10-01 08:15:00,
2013-10-01 04:20:00,53.8,53.0,29.99,NE,44,0.0,0.0,97,0.00,,,0.00,VWS V14.01,2013-10-01 08:20:00,
2013-10-01 04:25:00,53.9,53.1,29.99,NE,44,0.0,0.0,97,0.00,,,0.00,VWS V14.01,2013-10-01 08:25:00,
2013-10-01 04:30:00,53.9,53.1,29.99,NE,44,0.0,0.0,97,0.00,,,0.00,VWS V14.01,2013-10-01 08:30:00,
2013-10-01 04:35:00,53.9,53.1,29.99,NE,44,0.0,0.0,97,0.00,,,0.00,VWS V14.01,2013-10-01 08:35:00,
2013-10-01 04:41:00,53.9,53.1,29.99,NE,44,0.0,0.0,97,0.00,,,0.00,VWS V14.01,2013-10-01 08:41:00,
2013-10-01 04:46:00,53.9,53.1,30.00,NE,44,0.0,0.0,97,0.00,,,0.00,VWS V14.01,2013-10-01 08:46:00,
2013-10-01 04:51:00,53.9,53.1,30.00,NE,44,0.0,0.0,97,0.00,,,0.00,VWS V14.01,2013-10-01 08:51:00,
2013-10-01 04:56:00,53.8,53.0,30.00,NE,44,0.0,0.0,97,0.00,,,0.00,VWS V14.01,2013-10-01 08:56:00,
2013-10-01 05:02:00,53.9,53.3,30.00,NE,44,0.0,0.0,98,0.00,,,0.00,VWS V14.01,2013-10-01 09:02:00,
2013-10-01 05:07:00,53.9,53.1,30.00,NE,44,0.0,0.0,97,0.00,,,0.00,VWS V14.01,2013-10-01 09:07:00,
2013-10-01 05:12:00,53.9,53.3,30.00,NE,44,0.0,0.0,98,0.00,,,0.00,VWS V14.01,2013-10-01 09:12:00,
2013-10-01 05:17:00,53.8,53.0,30.01,NE,44,0.0,0.0,97,0.00,,,0.00,VWS V14.01,2013-10-01 09:17:00,
2013-10-01 05:22:00,53.8,53.0,30.01,NE,44,0.0,0.0,97,0.00,,,0.00,VWS V14.01,2013-10-01 09:22:00,
2013-10-01 05:28:00,53.8,53.0,30.01,NE,44,0.0,0.0,97,0.00,,,0.00,VWS V14.01,2013-10-01 09:28:00,
2013-10-01 05:33:00,53.8,53.2,30.01,NE,44,0.0,0.0,98,0.00,,,0.00,VWS V14.01,2013-10-01 09:33:00,
2013-10-01 05:38:00,53.6,52.8,30.01,NE,44,0.0,0.0,97,0.00,,,0.00,VWS V14.01,2013-10-01 09:38:00,
2013-10-01 05:44:00,53.5,52.7,30.01,NE,44,0.0,0.0,97,0.00,,,0.00,VWS V14.01,2013-10-01 09:44:00,
2013-10-01 05:49:00,53.5,52.7,30.02,NE,44,0.0,0.0,97,0.00,,,0.00,VWS V14.01,2013-10-01 09:49:00,
2013-10-01 05:54:00,53.3,52.5,30.02,NE,44,0.0,0.0,97,0.00,,,0.00,VWS V14.01,2013-10-01 09:54:00,
2013-10-01 05:59:00,53.3,52.5,30.03,NE,44,0.0,0.0,97,0.00,,,0.00,VWS V14.01,2013-10-01 09:59:00,
2013-10-01 06:05:00,53.3,52.8,30.03,NE,44,0.0,0.0,98,0.00,,,0.00,VWS V14.01,2013-10-01 10:05:00,
2013-10-01 06:10:00,53.5,53.0,30.03,NE,44,0.0,0.0,98,0.00,,,0.00,VWS V14.01,2013-10-01 10:10:00,
2013-10-01 06:15:00,53.5,53.0,30.03,NE,44,0.0,0.0,98,0.00,,,0.00,VWS V14.01,2013-10-01 10:15:00,
2013-10-01 06:20:00,53.6,53.0,30.03,NE,44,0.0,0.0,98,0.00,,,0.00,VWS V14.01,2013-10-01 10:20:00,
2013-10-01 06:25:00,53.6,53.0,30.03,NE,44,0.0,0.0,98,0.00,,,0.00,VWS V14.01,2013-10-01 10:25:00,
2013-10-01 06:30:00,53.6,53.0,30.04,NE,44,0.0,0.0,98,0.00,,,0.00,VWS V14.01,2013-10-01 10:30:00,
2013-10-01 06:35:00,53.8,53.2,30.04,NE,44,0.0,0.0,98,0.00,,,0.00,VWS V14.01,2013-10-01 10:35:00,
2013-10-01 06:41:00,53.8,53.2,30.04,NE,44,0.0,0.0,98,0.00,,,0.00,VWS V14.01,2013-10-01 10:41:00,
2013-10-01 06:46:00,53.9,53.3,30.05,NE,44,0.0,0.0,98,0.00,,,0.00,VWS V14.01,2013-10-01 10:46:00,
2013-10-01 06:52:00,54.1,53.5,30.05,NE,44,0.0,0.0,98,0.00,,,0.00,VWS V14.01,2013-10-01 10:52:00,
2013-10-01 06:57:00,54.1,53.5,30.05,NE,44,0.0,0.0,98,0.00,,,0.00,VWS V14.01,2013-10-01 10:57:00,
2013-10-01 07:02:00,54.2,53.7,30.05,NE,44,0.0,0.0,98,0.00,,,0.00,VWS V14.01,2013-10-01 11:02:00,
2013-10-01 07:08:00,54.2,53.7,30.05,NE,44,0.0,0.0,98,0.00,,,0.00,VWS V14.01,2013-10-01 11:08:00,
2013-10-01 07:13:00,54.4,53.8,30.05,NE,44,0.0,0.0,98,0.00,,,0.00,VWS V14.01,2013-10-01 11:13:00,
2013-10-01 07:19:00,54.4,53.8,30.06,NE,44,0.0,0.0,98,0.00,,,0.00,VWS V14.01,2013-10-01 11:19:00,
2013-10-01 07:24:00,54.2,53.7,30.06,NE,44,0.0,0.0,98,0.00,,,0.00,VWS V14.01,2013-10-01 11:24:00,
2013-10-01 07:29:00,54.2,53.7,30.07,NE,44,0.0,0.0,98,0.00,,,0.00,VWS V14.01,2013-10-01 11:29:00,
2013-10-01 07:35:00,54.2,53.7,30.07,NE,44,0.0,0.0,98,0.00,,,0.00,VWS V14.01,2013-10-01 11:35:00,
2013-10-01 07:40:00,54.2,53.7,30.07,NE,44,0.0,0.0,98,0.00,,,0.00,VWS V14.01,2013-10-01 11:40:00,
2013-10-01 07:45:00,54.2,53.7,30.07,NE,44,0.0,0.0,98,0.00,,,0.00,VWS V14.01,2013-10-01 11:45:00,
2013-10-01 07:50:00,54.2,53.7,30.07,NE,44,0.0,0.0,98,0.00,,,0.00,VWS V14.01,2013-10-01 11:50:00,
2013-10-01 07:55:00,54.2,53.7,30.07,NE,44,0.0,0.0,98,0.00,,,0.00,VWS V14.01,2013-10-01 11:55:00,
2013-10-01 08:00:00,54.4,53.8,30.07,NE,44,0.0,0.0,98,0.00,,,0.00,VWS V14.01,2013-10-01 12:00:00,
2013-10-01 08:05:00,54.4,53.8,30.07,NE,44,0.0,0.0,98,0.00,,,0.00,VWS V14.01,2013-10-01 12:05:00,
2013-10-01 08:10:00,54.4,53.8,30.07,NE,44,0.0,0.0,98,0.00,,,0.00,VWS V14.01,2013-10-01 12:10:00,
2013-10-01 08:15:00,54.2,53.7,30.07,NE,44,0.0,0.0,98,0.00,,,0.00,VWS V14.01,2013-10-01 12:15:00,
2013-10-01 08:21:00,54.4,53.8,30.07,NE,44,0.0,0.0,98,0.00,,,0.00,VWS V14.01,2013-10-01 12:21:00,
2013-10-01 08:26:00,54.4,53.8,30.07,NE,44,0.0,0.0,98,0.00,,,0.00,VWS V14.01,2013-10-01 12:26:00,
2013-10-01 08:31:00,54.5,54.0,30.08,NE,44,0.0,0.0,98,0.00,,,0.00,VWS V14.01,2013-10-01 12:31:00,
2013-10-01 08:37:00,54.7,54.2,30.08,NE,44,0.0,0.0,98,0.00,,,0.00,VWS V14.01,2013-10-01 12:37:00,
2013-10-01 08:42:00,54.8,54.2,30.08,NE,44,0.0,0.0,98,0.00,,,0.00,VWS V14.01,2013-10-01 12:42:00,
2013-10-01 08:47:00,55.0,54.5,30.09,NE,44,0.0,0.0,98,0.00,,,0.00,VWS V14.01,2013-10-01 12:47:00,
2013-10-01 08:52:00,55.3,54.8,30.09,NE,44,0.0,0.0,98,0.00,,,0.00,VWS V14.01,2013-10-01 12:52:00,
2013-10-01 08:58:00,55.6,55.0,30.09,NE,44,0.0,0.0,98,0.00,,,0.00,VWS V14.01,2013-10-01 12:58:00,
2013-10-01 09:03:00,55.9,55.3,30.09,NE,44,0.0,0.0,98,0.00,,,0.00,VWS V14.01,2013-10-01 13:03:00,
2013-10-01 09:08:00,56.3,55.8,30.09,NE,44,0.0,0.0,98,0.00,,,0.00,VWS V14.01,2013-10-01 13:08:00,
2013-10-01 09:14:00,56.6,56.0,30.09,NE,44,0.0,0.0,98,0.00,,,0.00,VWS V14.01,2013-10-01 13:14:00,
2013-10-01 09:19:00,56.7,56.1,30.09,NE,44,0.0,0.0,98,0.00,,,0.00,VWS V14.01,2013-10-01 13:19:00,
2013-10-01 09:24:00,56.7,56.1,30.09,NE,44,0.0,0.0,98,0.00,,,0.00,VWS V14.01,2013-10-01 13:24:00,
2013-10-01 09:29:00,56.9,56.3,30.09,NE,44,0.0,0.0,98,0.00,,,0.00,VWS V14.01,2013-10-01 13:29:00,
2013-10-01 09:35:00,57.0,56.4,30.09,NE,44,0.0,0.0,98,0.00,,,0.00,VWS V14.01,2013-10-01 13:35:00,
2013-10-01 09:40:00,57.3,56.7,30.09,NE,44,0.0,0.0,98,0.00,,,0.00,VWS V14.01,2013-10-01 13:40:00,
2013-10-01 09:45:00,57.5,56.9,30.09,NE,44,0.0,0.0,98,0.00,,,0.00,VWS V14.01,2013-10-01 13:45:00,
2013-10-01 09:50:00,57.6,57.0,30.09,NE,44,0.0,0.0,98,0.00,,,0.00,VWS V14.01,2013-10-01 13:50:00,
2013-10-01 09:56:00,58.0,57.4,30.09,WNW,284,0.0,0.0,98,0.00,,,0.00,VWS V14.01,2013-10-01 13:56:00,
2013-10-01 10:01:00,58.4,57.8,30.09,WNW,283,0.0,0.0,98,0.00,,,0.00,VWS V14.01,2013-10-01 14:01:00,
2013-10-01 10:06:00,58.9,58.3,30.09,West,275,1.0,0.0,98,0.00,,,0.00,VWS V14.01,2013-10-01 14:06:00,
2013-10-01 10:11:00,59.2,58.6,30.09,West,275,0.0,0.0,98,0.00,,,0.00,VWS V14.01,2013-10-01 14:11:00,
2013-10-01 10:17:00,59.3,58.7,30.09,West,275,0.0,0.0,98,0.00,,,0.00,VWS V14.01,2013-10-01 14:17:00,
2013-10-01 10:22:00,59.8,59.2,30.09,West,262,1.0,0.0,98,0.00,,,0.00,VWS V14.01,2013-10-01 14:22:00,
2013-10-01 10:27:00,60.1,59.2,30.09,West,262,0.0,0.0,97,0.00,,,0.00,VWS V14.01,2013-10-01 14:27:00,
2013-10-01 10:32:00,60.5,59.7,30.10,West,262,0.0,0.0,97,0.00,,,0.00,VWS V14.01,2013-10-01 14:32:00,
2013-10-01 10:37:00,60.7,59.6,30.10,WNW,282,1.0,0.0,96,0.00,,,0.00,VWS V14.01,2013-10-01 14:37:00,
2013-10-01 10:43:00,61.2,59.8,30.10,WSW,254,0.0,0.0,95,0.00,,,0.00,VWS V14.01,2013-10-01 14:43:00,
2013-10-01 10:49:00,61.6,59.9,30.09,WSW,255,0.0,0.0,94,0.00,,,0.00,VWS V14.01,2013-10-01 14:49:00,
2013-10-01 10:54:00,62.1,59.8,30.09,NW,322,1.0,0.0,92,0.00,,,0.00,VWS V14.01,2013-10-01 14:54:00,
2013-10-01 10:59:00,62.6,59.9,30.09,West,277,4.0,0.0,91,0.00,,,0.00,VWS V14.01,2013-10-01 14:59:00,
2013-10-01 11:04:00,62.9,59.3,30.09,WNW,282,0.0,0.0,88,0.00,,,0.00,VWS V14.01,2013-10-01 15:04:00,
2013-10-01 11:09:00,63.4,59.8,30.09,West,281,2.0,0.0,88,0.00,,,0.00,VWS V14.01,2013-10-01 15:09:00,
2013-10-01 11:15:00,64.0,59.7,30.09,West,259,0.0,0.0,86,0.00,,,0.00,VWS V14.01,2013-10-01 15:15:00,
2013-10-01 11:20:00,64.7,59.8,30.09,WSW,256,0.0,0.0,84,0.00,,,0.00,VWS V14.01,2013-10-01 15:20:00,
2013-10-01 11:25:00,65.3,60.0,30.09,West,281,3.0,0.0,83,0.00,,,0.00,VWS V14.01,2013-10-01 15:25:00,
2013-10-01 11:30:00,65.8,59.8,30.08,West,274,0.0,0.0,81,0.00,,,0.00,VWS V14.01,2013-10-01 15:30:00,
2013-10-01 11:35:00,66.4,60.0,30.08,SW,235,3.0,0.0,80,0.00,,,0.00,VWS V14.01,2013-10-01 15:35:00,
2013-10-01 11:40:00,66.6,59.5,30.08,WSW,248,0.0,0.0,78,0.00,,,0.00,VWS V14.01,2013-10-01 15:40:00,
2013-10-01 11:46:00,66.6,59.9,30.08,WSW,248,0.0,0.0,79,0.00,,,0.00,VWS V14.01,2013-10-01 15:46:00,
2013-10-01 11:51:00,66.4,59.0,30.08,WSW,247,0.0,0.0,77,0.00,,,0.00,VWS V14.01,2013-10-01 15:51:00,
2013-10-01 11:56:00,66.3,59.2,30.08,WSW,248,0.0,0.0,78,0.00,,,0.00,VWS V14.01,2013-10-01 15:56:00,
2013-10-01 12:02:00,65.6,59.3,30.08,WSW,248,0.0,0.0,80,0.00,,,0.00,VWS V14.01,2013-10-01 16:02:00,
2013-10-01 12:07:00,65.3,60.0,30.08,WSW,247,0.0,0.0,83,0.00,,,0.00,VWS V14.01,2013-10-01 16:07:00,
2013-10-01 12:13:00,65.0,60.0,30.08,WSW,247,0.0,0.0,84,0.00,,,0.00,VWS V14.01,2013-10-01 16:13:00,
2013-10-01 12:18:00,65.0,60.0,30.08,WSW,247,0.0,0.0,84,0.00,,,0.00,VWS V14.01,2013-10-01 16:18:00,
2013-10-01 12:24:00,65.6,59.6,30.08,West,265,0.0,0.0,81,0.00,,,0.00,VWS V14.01,2013-10-01 16:24:00,
2013-10-01 12:29:00,66.9,59.1,30.07,WSW,238,0.0,0.0,76,0.00,,,0.00,VWS V14.01,2013-10-01 16:29:00,
2013-10-01 12:32:00,67.4,59.2,30.07,WSW,238,0.0,0.0,75,0.00,,,0.00,VWS V14.01,2013-10-01 16:32:00,
2013-10-01 12:37:00,68.4,59.4,30.07,SW,228,0.0,0.0,73,0.00,,,0.00,VWS V14.01,2013-10-01 16:37:00,
2013-10-01 12:42:00,68.4,59.0,30.07,SW,231,1.0,0.0,72,0.00,,,0.00,VWS V14.01,2013-10-01 16:42:00,
2013-10-01 12:47:00,68.6,58.8,30.07,SW,234,0.0,0.0,71,0.00,,,0.00,VWS V14.01,2013-10-01 16:47:00,
2013-10-01 12:53:00,69.6,59.4,30.07,WSW,242,0.0,0.0,70,0.00,,,0.00,VWS V14.01,2013-10-01 16:53:00,
2013-10-01 12:58:00,70.3,59.2,30.07,WSW,237,0.0,0.0,68,0.00,,,0.00,VWS V14.01,2013-10-01 16:58:00,
2013-10-01 13:04:00,70.8,59.3,30.06,WSW,243,1.0,0.0,67,0.00,,,0.00,VWS V14.01,2013-10-01 17:04:00,
2013-10-01 13:09:00,71.3,58.9,30.06,SSW,204,1.0,0.0,65,0.00,,,0.00,VWS V14.01,2013-10-01 17:09:00,
2013-10-01 13:14:00,71.1,59.6,30.05,SSW,204,0.0,0.0,67,0.00,,,0.00,VWS V14.01,2013-10-01 17:14:00,
2013-10-01 13:20:00,71.8,59.4,30.05,WSW,251,1.0,0.0,65,0.00,,,0.00,VWS V14.01,2013-10-01 17:20:00,
2013-10-01 13:25:00,72.3,59.0,30.05,WSW,251,0.0,0.0,63,0.00,,,0.00,VWS V14.01,2013-10-01 17:25:00,
2013-10-01 13:30:00,73.0,58.8,30.05,NW,321,1.0,0.0,61,0.00,,,0.00,VWS V14.01,2013-10-01 17:30:00,
2013-10-01 13:35:00,73.5,59.7,30.05,WSW,246,0.0,0.0,62,0.00,,,0.00,VWS V14.01,2013-10-01 17:35:00,
2013-10-01 13:40:00,74.0,58.3,30.05,West,263,2.0,0.0,58,0.00,,,0.00,VWS V14.01,2013-10-01 17:40:00,
2013-10-01 13:46:00,73.7,57.5,30.04,SW,222,0.0,0.0,57,0.00,,,0.00,VWS V14.01,2013-10-01 17:46:00,
2013-10-01 13:51:00,73.0,57.8,30.04,SW,222,0.0,0.0,59,0.00,,,0.00,VWS V14.01,2013-10-01 17:51:00,
2013-10-01 13:56:00,72.1,57.9,30.04,SW,222,0.0,0.0,61,0.00,,,0.00,VWS V14.01,2013-10-01 17:56:00,
2013-10-01 14:01:00,72.0,58.3,30.03,NNW,329,2.0,0.0,62,0.00,,,0.00,VWS V14.01,2013-10-01 18:01:00,
2013-10-01 14:07:00,73.3,58.6,30.03,West,263,1.0,0.0,60,0.00,,,0.00,VWS V14.01,2013-10-01 18:07:00,
2013-10-01 14:13:00,73.5,57.8,30.03,SW,220,0.0,0.0,58,0.00,,,0.00,VWS V14.01,2013-10-01 18:13:00,
2013-10-01 14:18:00,73.7,58.0,30.02,SW,225,6.0,0.0,58,0.00,,,0.00,VWS V14.01,2013-10-01 18:18:00,
2013-10-01 14:23:00,74.0,56.8,30.02,West,259,1.0,0.0,55,0.00,,,0.00,VWS V14.01,2013-10-01 18:23:00,
2013-10-01 14:29:00,74.7,58.0,30.02,NNW,340,0.0,0.0,56,0.00,,,0.00,VWS V14.01,2013-10-01 18:29:00,
2013-10-01 14:34:00,75.4,59.1,30.02,NNW,328,3.0,0.0,57,0.00,,,0.00,VWS V14.01,2013-10-01 18:34:00,
2013-10-01 14:39:00,75.4,58.6,30.02,West,262,1.0,0.0,56,0.00,,,0.00,VWS V14.01,2013-10-01 18:39:00,
2013-10-01 14:45:00,75.4,57.1,30.01,WSW,242,3.0,0.0,53,0.00,,,0.00,VWS V14.01,2013-10-01 18:45:00,
2013-10-01 14:50:00,75.4,56.6,30.01,West,259,0.0,0.0,52,0.00,,,0.00,VWS V14.01,2013-10-01 18:50:00,
2013-10-01 14:55:00,75.8,57.5,30.01,SSW,209,1.0,0.0,53,0.00,,,0.00,VWS V14.01,2013-10-01 18:55:00,
2013-10-01 15:00:00,76.5,57.6,30.01,SSW,196,1.0,0.0,52,0.00,,,0.00,VWS V14.01,2013-10-01 19:00:00,
2013-10-01 15:06:00,76.3,57.4,30.01,SW,234,0.0,0.0,52,0.00,,,0.00,VWS V14.01,2013-10-01 19:06:00,
2013-10-01 15:11:00,76.1,57.2,30.01,West,268,0.0,0.0,52,0.00,,,0.00,VWS V14.01,2013-10-01 19:11:00,
2013-10-01 15:16:00,76.7,57.8,30.00,West,262,2.0,0.0,52,0.00,,,0.00,VWS V14.01,2013-10-01 19:16:00,
2013-10-01 15:21:00,77.4,59.5,30.00,West,263,1.0,0.0,54,0.00,,,0.00,VWS V14.01,2013-10-01 19:21:00,
2013-10-01 15:27:00,77.4,57.9,30.00,WSW,240,3.0,0.0,51,0.00,,,0.00,VWS V14.01,2013-10-01 19:27:00,
2013-10-01 15:32:00,77.4,57.3,30.00,WNW,294,1.0,0.0,50,0.00,,,0.00,VWS V14.01,2013-10-01 19:32:00,
2013-10-01 15:37:00,77.4,57.9,30.00,West,275,2.0,0.0,51,0.00,,,0.00,VWS V14.01,2013-10-01 19:37:00,
2013-10-01 15:43:00,77.2,57.7,30.00,WNW,283,0.0,0.0,51,0.00,,,0.00,VWS V14.01,2013-10-01 19:43:00,
2013-10-01 15:48:00,77.0,57.0,29.99,North,355,0.0,0.0,50,0.00,,,0.00,VWS V14.01,2013-10-01 19:48:00,
2013-10-01 15:53:00,77.0,56.4,29.99,WSW,240,0.0,0.0,49,0.00,,,0.00,VWS V14.01,2013-10-01 19:53:00,
2013-10-01 15:59:00,77.0,55.8,29.99,NW,314,1.0,0.0,48,0.00,,,0.00,VWS V14.01,2013-10-01 19:59:00,
2013-10-01 16:04:00,76.7,55.5,30.00,WSW,239,1.0,0.0,48,0.00,,,0.00,VWS V14.01,2013-10-01 20:04:00,
2013-10-01 16:09:00,76.8,55.7,30.00,West,269,1.0,0.0,48,0.00,,,0.00,VWS V14.01,2013-10-01 20:09:00,
2013-10-01 16:14:00,77.0,55.8,29.99,NW,323,1.0,0.0,48,0.00,,,0.00,VWS V14.01,2013-10-01 20:14:00,
2013-10-01 16:20:00,77.4,55.6,29.99,NW,304,0.0,0.0,47,0.00,,,0.00,VWS V14.01,2013-10-01 20:20:00,
2013-10-01 16:25:00,77.9,56.7,29.99,WSW,253,1.0,0.0,48,0.00,,,0.00,VWS V14.01,2013-10-01 20:25:00,
2013-10-01 16:30:00,78.1,57.4,29.99,WSW,253,2.0,0.0,49,0.00,,,0.00,VWS V14.01,2013-10-01 20:30:00,
2013-10-01 16:35:00,77.9,56.7,29.99,WSW,254,0.0,0.0,48,0.00,,,0.00,VWS V14.01,2013-10-01 20:35:00,
2013-10-01 16:40:00,77.7,55.9,29.99,WSW,246,0.0,0.0,47,0.00,,,0.00,VWS V14.01,2013-10-01 20:40:00,
2013-10-01 16:45:00,77.9,57.2,29.99,WSW,246,1.0,0.0,49,0.00,,,0.00,VWS V14.01,2013-10-01 20:45:00,
2013-10-01 16:50:00,77.9,57.2,29.99,WNW,289,0.0,0.0,49,0.00,,,0.00,VWS V14.01,2013-10-01 20:50:00,
2013-10-01 16:55:00,77.9,58.3,29.99,WNW,289,0.0,0.0,51,0.00,,,0.00,VWS V14.01,2013-10-01 20:55:00,
2013-10-01 17:00:00,77.9,58.3,29.99,West,270,0.0,0.0,51,0.00,,,0.00,VWS V14.01,2013-10-01 21:00:00,
2013-10-01 17:05:00,77.9,57.8,29.99,West,269,2.0,0.0,50,0.00,,,0.00,VWS V14.01,2013-10-01 21:05:00,
2013-10-01 17:11:00,77.6,57.5,29.99,West,269,1.0,0.0,50,0.00,,,0.00,VWS V14.01,2013-10-01 21:11:00,
2013-10-01 17:16:00,77.0,58.0,29.99,WSW,242,2.0,0.0,52,0.00,,,0.00,VWS V14.01,2013-10-01 21:16:00,
2013-10-01 17:21:00,75.8,56.9,29.99,NNE,13,1.0,0.0,52,0.00,,,0.00,VWS V14.01,2013-10-01 21:21:00,
2013-10-01 17:26:00,74.7,57.0,29.99,NNE,13,1.0,0.0,54,0.00,,,0.00,VWS V14.01,2013-10-01 21:26:00,
2013-10-01 17:32:00,74.2,57.0,30.00,NNE,13,0.0,0.0,55,0.00,,,0.00,VWS V14.01,2013-10-01 21:32:00,
2013-10-01 17:37:00,73.7,59.4,30.00,NNE,13,0.0,0.0,61,0.00,,,0.00,VWS V14.01,2013-10-01 21:37:00,
2013-10-01 17:42:00,72.8,59.0,30.00,NNE,13,0.0,0.0,62,0.00,,,0.00,VWS V14.01,2013-10-01 21:42:00,
2013-10-01 17:47:00,72.1,58.8,30.00,NNE,13,0.0,0.0,63,0.00,,,0.00,VWS V14.01,2013-10-01 21:47:00,
2013-10-01 17:52:00,71.6,59.2,30.00,NNE,13,0.0,0.0,65,0.00,,,0.00,VWS V14.01,2013-10-01 21:52:00,
2013-10-01 17:58:00,71.5,59.6,30.00,WSW,250,0.0,0.0,66,0.00,,,0.00,VWS V14.01,2013-10-01 21:58:00,
2013-10-01 18:03:00,71.8,59.4,30.01,South,173,0.0,0.0,65,0.00,,,0.00,VWS V14.01,2013-10-01 22:03:00,
2013-10-01 18:08:00,72.1,57.9,30.01,South,173,0.0,0.0,61,0.00,,,0.00,VWS V14.01,2013-10-01 22:08:00,
2013-10-01 18:13:00,72.1,59.7,30.01,South,173,0.0,0.0,65,0.00,,,0.00,VWS V14.01,2013-10-01 22:13:00,
2013-10-01 18:19:00,71.6,60.1,30.00,South,173,0.0,0.0,67,0.00,,,0.00,VWS V14.01,2013-10-01 22:19:00,
2013-10-01 18:24:00,71.1,60.0,30.00,South,173,0.0,0.0,68,0.00,,,0.00,VWS V14.01,2013-10-01 22:24:00,
2013-10-01 18:29:00,70.4,60.2,30.01,South,173,0.0,0.0,70,0.00,,,0.00,VWS V14.01,2013-10-01 22:29:00,
2013-10-01 18:34:00,69.8,60.0,30.01,South,173,0.0,0.0,71,0.00,,,0.00,VWS V14.01,2013-10-01 22:34:00,
2013-10-01 18:40:00,69.3,60.7,30.01,South,173,0.0,0.0,74,0.00,,,0.00,VWS V14.01,2013-10-01 22:40:00,
2013-10-01 18:45:00,68.6,60.4,30.01,South,173,0.0,0.0,75,0.00,,,0.00,VWS V14.01,2013-10-01 22:45:00,
2013-10-01 18:50:00,68.3,60.8,30.01,South,173,0.0,0.0,77,0.00,,,0.00,VWS V14.01,2013-10-01 22:50:00,
2013-10-01 18:55:00,67.8,60.7,30.01,South,173,0.0,0.0,78,0.00,,,0.00,VWS V14.01,2013-10-01 22:55:00,
2013-10-01 19:01:00,67.4,61.0,30.01,South,173,0.0,0.0,80,0.00,,,0.00,VWS V14.01,2013-10-01 23:01:00,
2013-10-01 19:06:00,67.1,61.1,30.01,South,173,0.0,0.0,81,0.00,,,0.00,VWS V14.01,2013-10-01 23:06:00,
2013-10-01 19:12:00,66.8,61.1,30.01,South,173,0.0,0.0,82,0.00,,,0.00,VWS V14.01,2013-10-01 23:12:00,
2013-10-01 19:17:00,66.6,61.3,30.02,South,173,0.0,0.0,83,0.00,,,0.00,VWS V14.01,2013-10-01 23:17:00,
2013-10-01 19:21:00,66.3,61.3,30.02,South,173,0.0,0.0,84,0.00,,,0.00,VWS V14.01,2013-10-01 23:21:00,
2013-10-01 19:26:00,66.0,61.0,30.02,South,173,0.0,0.0,84,0.00,,,0.00,VWS V14.01,2013-10-01 23:26:00,
2013-10-01 19:30:00,65.6,60.6,30.02,South,173,0.0,0.0,84,0.00,,,0.00,VWS V14.01,2013-10-01 23:30:00,
2013-10-01 19:35:00,65.5,60.9,30.02,South,173,0.0,0.0,85,0.00,,,0.00,VWS V14.01,2013-10-01 23:35:00,
2013-10-01 19:40:00,65.2,60.6,30.02,South,173,0.0,0.0,85,0.00,,,0.00,VWS V14.01,2013-10-01 23:40:00,
2013-10-01 19:46:00,65.0,60.7,30.03,South,173,0.0,0.0,86,0.00,,,0.00,VWS V14.01,2013-10-01 23:46:00,
2013-10-01 19:51:00,64.7,60.8,30.03,South,173,0.0,0.0,87,0.00,,,0.00,VWS V14.01,2013-10-01 23:51:00,
2013-10-01 19:56:00,64.5,60.5,30.03,South,173,0.0,0.0,87,0.00,,,0.00,VWS V14.01,2013-10-01 23:56:00,
2013-10-01 20:01:00,64.2,60.3,30.03,South,173,0.0,0.0,87,0.00,,,0.00,VWS V14.01,2013-10-02 00:01:00,
2013-10-01 20:06:00,63.7,60.1,30.03,South,173,0.0,0.0,88,0.00,,,0.00,VWS V14.01,2013-10-02 00:06:00,
2013-10-01 20:11:00,63.2,59.6,30.03,South,173,0.0,0.0,88,0.00,,,0.00,VWS V14.01,2013-10-02 00:11:00,
2013-10-01 20:16:00,62.9,59.3,30.03,South,173,0.0,0.0,88,0.00,,,0.00,VWS V14.01,2013-10-02 00:16:00,
2013-10-01 20:21:00,62.6,59.0,30.03,South,173,0.0,0.0,88,0.00,,,0.00,VWS V14.01,2013-10-02 00:21:00,
2013-10-01 20:26:00,62.3,59.0,30.03,South,173,0.0,0.0,89,0.00,,,0.00,VWS V14.01,2013-10-02 00:26:00,
2013-10-01 20:31:00,62.0,58.7,30.03,South,173,0.0,0.0,89,0.00,,,0.00,VWS V14.01,2013-10-02 00:31:00,
2013-10-01 20:32:00,61.8,58.5,30.03,South,173,0.0,0.0,89,0.00,,,0.00,VWS V14.01,2013-10-02 00:32:00,
2013-10-01 20:37:00,61.6,58.6,30.03,South,173,0.0,0.0,90,0.00,,,0.00,VWS V14.01,2013-10-02 00:37:00,
2013-10-01 20:42:00,61.3,58.3,30.03,South,173,0.0,0.0,90,0.00,,,0.00,VWS V14.01,2013-10-02 00:42:00,
2013-10-01 20:47:00,61.0,58.4,30.04,South,173,0.0,0.0,91,0.00,,,0.00,VWS V14.01,2013-10-02 00:47:00,
2013-10-01 20:52:00,60.9,58.3,30.04,South,173,0.0,0.0,91,0.00,,,0.00,VWS V14.01,2013-10-02 00:52:00,
2013-10-01 20:57:00,60.7,58.1,30.04,South,173,0.0,0.0,91,0.00,,,0.00,VWS V14.01,2013-10-02 00:57:00,
2013-10-01 21:03:00,60.5,58.2,30.04,South,173,0.0,0.0,92,0.00,,,0.00,VWS V14.01,2013-10-02 01:03:00,
2013-10-01 21:08:00,60.2,57.9,30.04,South,173,0.0,0.0,92,0.00,,,0.00,VWS V14.01,2013-10-02 01:08:00,
2013-10-01 21:13:00,60.1,57.8,30.04,South,173,0.0,0.0,92,0.00,,,0.00,VWS V14.01,2013-10-02 01:13:00,
2013-10-01 21:18:00,60.1,58.1,30.04,South,173,0.0,0.0,93,0.00,,,0.00,VWS V14.01,2013-10-02 01:18:00,
2013-10-01 21:23:00,59.9,57.9,30.04,South,173,0.0,0.0,93,0.00,,,0.00,VWS V14.01,2013-10-02 01:23:00,
2013-10-01 21:28:00,59.8,57.8,30.04,South,173,0.0,0.0,93,0.00,,,0.00,VWS V14.01,2013-10-02 01:28:00,
2013-10-01 21:33:00,59.6,57.6,30.05,South,173,0.0,0.0,93,0.00,,,0.00,VWS V14.01,2013-10-02 01:33:00,
2013-10-01 21:38:00,59.5,57.5,30.05,South,173,0.0,0.0,93,0.00,,,0.00,VWS V14.01,2013-10-02 01:38:00,
2013-10-01 21:43:00,59.5,57.5,30.05,South,173,0.0,0.0,93,0.00,,,0.00,VWS V14.01,2013-10-02 01:43:00,
2013-10-01 21:48:00,59.3,57.3,30.05,South,173,0.0,0.0,93,0.00,,,0.00,VWS V14.01,2013-10-02 01:48:00,
2013-10-01 21:53:00,59.2,57.5,30.05,South,173,0.0,0.0,94,0.00,,,0.00,VWS V14.01,2013-10-02 01:53:00,
2013-10-01 21:58:00,59.2,57.5,30.05,South,173,0.0,0.0,94,0.00,,,0.00,VWS V14.01,2013-10-02 01:58:00,
2013-10-01 22:03:00,59.2,57.5,30.05,South,173,0.0,0.0,94,0.00,,,0.00,VWS V14.01,2013-10-02 02:03:00,
2013-10-01 22:08:00,59.0,57.3,30.05,South,173,0.0,0.0,94,0.00,,,0.00,VWS V14.01,2013-10-02 02:08:00,
2013-10-01 22:14:00,58.9,57.2,30.05,South,173,0.0,0.0,94,0.00,,,0.00,VWS V14.01,2013-10-02 02:14:00,
2013-10-01 22:19:00,58.7,57.0,30.04,South,173,0.0,0.0,94,0.00,,,0.00,VWS V14.01,2013-10-02 02:19:00,
2013-10-01 22:24:00,58.7,57.3,30.04,South,173,0.0,0.0,95,0.00,,,0.00,VWS V14.01,2013-10-02 02:24:00,
2013-10-01 22:29:00,58.6,57.2,30.04,South,173,0.0,0.0,95,0.00,,,0.00,VWS V14.01,2013-10-02 02:29:00,
2013-10-01 22:34:00,58.6,57.2,30.04,South,173,0.0,0.0,95,0.00,,,0.00,VWS V14.01,2013-10-02 02:34:00,
2013-10-01 22:39:00,58.4,57.0,30.04,South,173,0.0,0.0,95,0.00,,,0.00,VWS V14.01,2013-10-02 02:39:00,
2013-10-01 22:44:00,58.4,57.0,30.04,South,173,0.0,0.0,95,0.00,,,0.00,VWS V14.01,2013-10-02 02:44:00,
2013-10-01 22:49:00,58.3,56.9,30.05,South,173,0.0,0.0,95,0.00,,,0.00,VWS V14.01,2013-10-02 02:49:00,
2013-10-01 22:54:00,58.3,56.9,30.05,South,173,0.0,0.0,95,0.00,,,0.00,VWS V14.01,2013-10-02 02:54:00,
2013-10-01 22:59:00,58.1,56.7,30.05,South,173,0.0,0.0,95,0.00,,,0.00,VWS V14.01,2013-10-02 02:59:00,
2013-10-01 23:04:00,58.1,56.7,30.05,South,173,0.0,0.0,95,0.00,,,0.00,VWS V14.01,2013-10-02 03:04:00,
2013-10-01 23:09:00,58.1,56.7,30.05,South,173,0.0,0.0,95,0.00,,,0.00,VWS V14.01,2013-10-02 03:09:00,
2013-10-01 23:14:00,58.1,57.0,30.05,South,173,0.0,0.0,96,0.00,,,0.00,VWS V14.01,2013-10-02 03:14:00,
2013-10-01 23:19:00,58.0,56.9,30.05,South,173,0.0,0.0,96,0.00,,,0.00,VWS V14.01,2013-10-02 03:19:00,
2013-10-01 23:24:00,57.8,56.7,30.05,South,173,0.0,0.0,96,0.00,,,0.00,VWS V14.01,2013-10-02 03:24:00,
2013-10-01 23:29:00,57.6,56.5,30.05,South,173,0.0,0.0,96,0.00,,,0.00,VWS V14.01,2013-10-02 03:29:00,
2013-10-01 23:34:00,57.6,56.5,30.05,South,173,0.0,0.0,96,0.00,,,0.00,VWS V14.01,2013-10-02 03:34:00,
2013-10-01 23:40:00,57.5,56.4,30.05,South,173,0.0,0.0,96,0.00,,,0.00,VWS V14.01,2013-10-02 03:40:00,
2013-10-01 23:45:00,57.5,56.4,30.05,South,173,0.0,0.0,96,0.00,,,0.00,VWS V14.01,2013-10-02 03:45:00,
2013-10-01 23:50:00,57.5,56.4,30.05,South,173,0.0,0.0,96,0.00,,,0.00,VWS V14.01,2013-10-02 03:50:00,
2013-10-01 23:55:00,57.5,56.4,30.05,South,173,0.0,0.0,96,0.00,,,0.00,VWS V14.01,2013-10-02 03:55:00,